Terminal Aerodrome Forecast
Issued by NWS Charleston, WV

Home | Current Version | Previous Version | Text Only | Print | Product List | Glossary On
Versions: 1 2 3 4 5 6 7 8 9 10 11 12 13 14 15 16 17 18 19 20 21 22 23 24 25 26 27 28 29 30 31
000
FTUS41 KRLX 050556 CCA
TAFHTS
TAF COR
KHTS 050556Z 0506/0606 00000KT 1SM BR SCT002
     FM051200 00000KT 3SM BR SCT001 BKN080
     FM051300 00000KT P6SM BKN050
     FM052000 09003KT P6SM VCSH BKN050
     FM060000 00000KT P6SM BKN035=

USA.gov is the U.S. government's official web portal to all federal, state and local government web resources and services.